Time;durP1;ratioP1;P1;durP2;ratioP2;P2;SDS_P1;SDS_P2;PMS_P1;PMS_P2;Temp;Humidity;BMP_temperature;BMP_pressure;BME280_temperature;BME280_humidity;BME280_pressure;Samples;Min_cycle;Max_cycle;Signal;HPM_P1;HPM_P2
2022/12/29 11:48:53;;;;;;;15.38;7.28;;;;;;;;;;5047804;28;20424;-61
2022/12/29 11:51:23;;;;;;;16.95;6.22;;;;;;;;;;5048353;28;20029;-62
2022/12/29 11:53:56;;;;;;;10.70;4.68;;;;;;;;;;5046221;28;20025;-62
2022/12/29 11:56:40;;;;;;;12.25;5.88;;;;;;;;;;5047101;28;20032;-63
2022/12/29 11:59:25;;;;;;;12.32;5.47;;;;;;;;;;5037700;28;20116;-60
2022/12/29 12:01:51;;;;;;;11.35;4.97;;;;;;;;;;5047564;28;20029;-62
2022/12/29 12:04:19;;;;;;;8.52;4.47;;;;;;;;;;5047889;28;20474;-61
2022/12/29 12:06:59;;;;;;;7.85;3.92;;;;;;;;;;5046147;28;20033;-60
2022/12/29 12:09:30;;;;;;;11.13;5.28;;;;;;;;;;5047728;28;20097;-61
2022/12/29 12:11:57;;;;;;;9.90;3.83;;;;;;;;;;5045031;28;20040;-61
2022/12/29 12:14:35;;;;;;;8.27;3.88;;;;;;;;;;5046370;28;20033;-62
2022/12/29 12:17:13;;;;;;;10.73;3.90;;;;;;;;;;5047699;28;20029;-81
2022/12/29 12:19:41;;;;;;;8.13;3.63;;;;;;;;;;5046555;28;20025;-74
2022/12/29 12:22:16;;;;;;;9.15;4.10;;;;;;;;;;5046973;28;20358;-60
2022/12/29 12:25:00;;;;;;;17.00;7.72;;;;;;;;;;5046111;28;20039;-64
2022/12/29 12:27:33;;;;;;;11.93;6.00;;;;;;;;;;5021127;28;20045;-63
2022/12/29 12:30:12;;;;;;;10.80;5.63;;;;;;;;;;5007150;28;20035;-63
2022/12/29 12:32:51;;;;;;;14.77;5.70;;;;;;;;;;5016981;28;20022;-77
2022/12/29 12:35:27;;;;;;;7.88;4.32;;;;;;;;;;5026752;28;20017;-73
2022/12/29 12:38:00;;;;;;;7.68;4.47;;;;;;;;;;5027348;28;20029;-62
2022/12/29 12:40:26;;;;;;;9.38;4.60;;;;;;;;;;5019692;28;20524;-62
2022/12/29 12:43:14;;;;;;;15.20;4.97;;;;;;;;;;5013778;28;20026;-63
2022/12/29 12:45:49;;;;;;;9.55;3.72;;;;;;;;;;5008557;28;20054;-65
2022/12/29 12:48:34;;;;;;;37.53;21.80;;;;;;;;;;5003411;28;20050;-62
2022/12/29 12:51:06;;;;;;;20.65;10.68;;;;;;;;;;5013528;28;20532;-74
2022/12/29 12:53:35;;;;;;;12.25;6.07;;;;;;;;;;5013925;28;20041;-62
2022/12/29 12:56:07;;;;;;;16.95;7.05;;;;;;;;;;5013938;28;20030;-62
2022/12/29 12:58:33;;;;;;;11.15;5.22;;;;;;;;;;5013601;28;20034;-62
2022/12/29 13:01:14;;;;;;;23.13;10.68;;;;;;;;;;5013422;28;20545;-84
2022/12/29 13:03:40;;;;;;;14.55;6.93;;;;;;;;;;5013448;28;20072;-74
2022/12/29 13:06:42;;;;;;;23.08;9.05;;;;;;;;;;5013019;28;20061;-76
2022/12/29 13:09:14;;;;;;;13.68;5.85;;;;;;;;;;4971605;28;20105;-82
2022/12/29 13:11:50;;;;;;;11.38;5.90;;;;;;;;;;4954661;28;20085;-62
2022/12/29 13:14:19;;;;;;;18.15;7.20;;;;;;;;;;4971074;28;20033;-70
2022/12/29 13:17:00;;;;;;;9.38;4.85;;;;;;;;;;4971817;28;20097;-61
2022/12/29 13:19:38;;;;;;;9.68;4.72;;;;;;;;;;4971261;28;20049;-60
2022/12/29 13:22:20;;;;;;;11.77;4.90;;;;;;;;;;4971273;28;20043;-61
2022/12/29 13:24:46;;;;;;;14.75;5.78;;;;;;;;;;4971589;28;20532;-80
2022/12/29 13:27:24;;;;;;;13.25;5.38;;;;;;;;;;4971441;28;20117;-61
2022/12/29 13:30:10;;;;;;;8.35;3.70;;;;;;;;;;4971482;28;20043;-61
2022/12/29 13:32:36;;;;;;;7.63;3.95;;;;;;;;;;4971419;28;20046;-64
2022/12/29 13:35:17;;;;;;;7.57;3.95;;;;;;;;;;4971470;28;20039;-61
2022/12/29 13:37:48;;;;;;;11.93;5.38;;;;;;;;;;4971638;28;20061;-63
2022/12/29 13:40:17;;;;;;;11.95;6.90;;;;;;;;;;4971799;28;20070;-60
2022/12/29 13:42:43;;;;;;;17.23;9.52;;;;;;;;;;4985471;28;20044;-62
2022/12/29 13:45:17;;;;;;;18.58;8.98;;;;;;;;;;5012894;28;20088;-62
2022/12/29 13:47:46;;;;;;;21.17;9.90;;;;;;;;;;5012574;28;20046;-63
2022/12/29 13:50:17;;;;;;;27.70;14.50;;;;;;;;;;5012674;28;20077;-63
2022/12/29 13:52:49;;;;;;;35.13;13.20;;;;;;;;;;5011981;28;20489;-78
2022/12/29 13:55:27;;;;;;;26.70;13.88;;;;;;;;;;5012549;28;20137;-65
2022/12/29 13:58:03;;;;;;;30.95;15.50;;;;;;;;;;5012660;28;20473;-62
2022/12/29 14:00:32;;;;;;;40.13;19.27;;;;;;;;;;5012333;28;20030;-63
2022/12/29 14:03:10;;;;;;;38.33;18.60;;;;;;;;;;5012412;28;20033;-63
2022/12/29 14:05:36;;;;;;;34.67;18.58;;;;;;;;;;5011161;28;20038;-63
2022/12/29 14:08:04;;;;;;;40.42;19.45;;;;;;;;;;5002427;28;20402;-63
2022/12/29 14:10:35;;;;;;;42.47;19.27;;;;;;;;;;5000497;28;20050;-64
2022/12/29 14:13:07;;;;;;;42.40;20.20;;;;;;;;;;5003272;28;20119;-78
2022/12/29 14:15:34;;;;;;;36.97;19.80;;;;;;;;;;5012482;28;20037;-62
2022/12/29 14:18:05;;;;;;;41.55;21.15;;;;;;;;;;5012013;28;20028;-63
2022/12/29 14:20:32;;;;;;;39.45;21.52;;;;;;;;;;5011786;28;20105;-65
2022/12/29 14:22:58;;;;;;;52.35;25.13;;;;;;;;;;5002864;28;20026;-62
2022/12/29 14:25:43;;;;;;;44.88;21.02;;;;;;;;;;4992453;28;20077;-67
2022/12/29 14:28:16;;;;;;;41.70;19.83;;;;;;;;;;5000337;28;20425;-74
2022/12/29 14:30:49;;;;;;;41.80;19.88;;;;;;;;;;5010452;28;20497;-62
2022/12/29 14:33:16;;;;;;;42.00;19.65;;;;;;;;;;5012062;28;20049;-65
2022/12/29 14:35:43;;;;;;;39.63;19.42;;;;;;;;;;5011799;28;20032;-65
2022/12/29 14:38:16;;;;;;;47.88;20.38;;;;;;;;;;4999807;28;20073;-61
2022/12/29 14:40:42;;;;;;;40.92;20.00;;;;;;;;;;4992445;28;20026;-63
2022/12/29 14:43:19;;;;;;;40.92;19.60;;;;;;;;;;4999547;28;20033;-62
2022/12/29 14:45:52;;;;;;;41.55;19.00;;;;;;;;;;5011940;28;20351;-81
2022/12/29 14:48:38;;;;;;;47.55;22.88;;;;;;;;;;5011602;28;20077;-61
2022/12/29 14:51:17;;;;;;;50.38;25.02;;;;;;;;;;5010392;28;20527;-61
2022/12/29 14:53:45;;;;;;;55.80;28.52;;;;;;;;;;5011607;28;20030;-61
2022/12/29 14:56:12;;;;;;;57.13;29.95;;;;;;;;;;5011896;28;20045;-62
2022/12/29 14:59:07;;;;;;;60.75;29.98;;;;;;;;;;5011721;28;20026;-61
2022/12/29 15:01:33;;;;;;;63.65;29.15;;;;;;;;;;4950153;29;20047;-64
2022/12/29 15:04:01;;;;;;;53.78;27.17;;;;;;;;;;4950659;28;20094;-61
2022/12/29 15:06:29;;;;;;;52.03;26.67;;;;;;;;;;4950457;29;20387;-61
2022/12/29 15:09:05;;;;;;;60.47;27.80;;;;;;;;;;4950661;29;20431;-61
2022/12/29 15:11:31;;;;;;;55.80;27.70;;;;;;;;;;4951112;29;20074;-63
2022/12/29 15:13:57;;;;;;;59.08;28.40;;;;;;;;;;4949886;29;20066;-70
2022/12/29 15:16:25;;;;;;;58.20;26.85;;;;;;;;;;4949450;29;20580;-61
2022/12/29 15:18:51;;;;;;;63.35;28.02;;;;;;;;;;4950778;29;20089;-62
2022/12/29 15:21:17;;;;;;;61.95;27.30;;;;;;;;;;4950665;29;20460;-62
2022/12/29 15:23:45;;;;;;;61.95;28.25;;;;;;;;;;4950671;29;20031;-61
2022/12/29 15:26:12;;;;;;;56.92;26.30;;;;;;;;;;4950539;29;20043;-62
2022/12/29 15:28:42;;;;;;;55.13;27.42;;;;;;;;;;4950748;29;20031;-76
2022/12/29 15:31:14;;;;;;;51.97;26.70;;;;;;;;;;4950646;29;20051;-61
2022/12/29 15:33:41;;;;;;;53.72;27.77;;;;;;;;;;4951032;29;20039;-61
2022/12/29 15:36:12;;;;;;;56.63;28.85;;;;;;;;;;4950708;29;20034;-62
2022/12/29 15:38:38;;;;;;;60.60;32.28;;;;;;;;;;4996504;28;20046;-62
2022/12/29 15:41:23;;;;;;;55.70;28.23;;;;;;;;;;5011264;28;20047;-62
